sensor_id;sensor_type;location;lat;lon;timestamp;pressure;altitude;pressure_sealevel;temperature;humidity
67109;BME280;54027;50.786;7.058;2022-09-09T00:00:37;100475.00;;;16.98;71.23
67109;BME280;54027;50.786;7.058;2022-09-09T00:05:35;100479.41;;;16.97;71.91
67109;BME280;54027;50.786;7.058;2022-09-09T00:08:03;100479.66;;;16.93;71.97
67109;BME280;54027;50.786;7.058;2022-09-09T00:10:37;100470.22;;;16.89;72.46
67109;BME280;54027;50.786;7.058;2022-09-09T00:13:25;100468.00;;;16.81;71.99
67109;BME280;54027;50.786;7.058;2022-09-09T00:15:59;100455.66;;;16.83;72.85
67109;BME280;54027;50.786;7.058;2022-09-09T00:18:49;100462.66;;;16.83;72.18
67109;BME280;54027;50.786;7.058;2022-09-09T00:21:16;100465.22;;;16.84;71.72
67109;BME280;54027;50.786;7.058;2022-09-09T00:23:44;100468.06;;;16.80;72.06
67109;BME280;54027;50.786;7.058;2022-09-09T00:26:16;100464.38;;;16.84;72.48
67109;BME280;54027;50.786;7.058;2022-09-09T00:28:47;100457.75;;;16.77;72.48
67109;BME280;54027;50.786;7.058;2022-09-09T00:31:16;100462.75;;;16.81;72.27
67109;BME280;54027;50.786;7.058;2022-09-09T00:33:43;100463.84;;;16.77;72.18
67109;BME280;54027;50.786;7.058;2022-09-09T00:36:12;100465.06;;;16.70;71.78
67109;BME280;54027;50.786;7.058;2022-09-09T00:38:52;100470.44;;;16.67;72.77
67109;BME280;54027;50.786;7.058;2022-09-09T00:41:22;100465.28;;;16.66;72.29
67109;BME280;54027;50.786;7.058;2022-09-09T00:43:54;100468.75;;;16.66;72.95
67109;BME280;54027;50.786;7.058;2022-09-09T00:56:37;100467.81;;;16.67;72.30
67109;BME280;54027;50.786;7.058;2022-09-09T01:01:35;100480.91;;;16.67;72.53
67109;BME280;54027;50.786;7.058;2022-09-09T01:04:01;100477.84;;;16.59;72.51
67109;BME280;54027;50.786;7.058;2022-09-09T01:06:36;100475.31;;;16.58;72.68
67109;BME280;54027;50.786;7.058;2022-09-09T01:12:01;100478.09;;;16.55;71.96
67109;BME280;54027;50.786;7.058;2022-09-09T01:16:56;100471.44;;;16.65;71.66
67109;BME280;54027;50.786;7.058;2022-09-09T01:19:27;100468.97;;;16.62;71.61
67109;BME280;54027;50.786;7.058;2022-09-09T01:24:45;100464.91;;;16.73;70.87
67109;BME280;54027;50.786;7.058;2022-09-09T01:27:13;100466.91;;;16.68;71.57
67109;BME280;54027;50.786;7.058;2022-09-09T01:29:40;100465.34;;;16.64;71.79
67109;BME280;54027;50.786;7.058;2022-09-09T01:34:49;100464.56;;;16.62;71.94
67109;BME280;54027;50.786;7.058;2022-09-09T01:37:15;100463.81;;;16.60;72.06
67109;BME280;54027;50.786;7.058;2022-09-09T01:39:41;100462.97;;;16.60;71.53
67109;BME280;54027;50.786;7.058;2022-09-09T01:42:08;100467.34;;;16.59;71.76
67109;BME280;54027;50.786;7.058;2022-09-09T01:44:34;100466.66;;;16.56;72.47
67109;BME280;54027;50.786;7.058;2022-09-09T01:46:59;100465.44;;;16.63;71.88
67109;BME280;54027;50.786;7.058;2022-09-09T01:49:25;100470.31;;;16.70;72.38
67109;BME280;54027;50.786;7.058;2022-09-09T01:51:52;100468.75;;;16.66;72.13
67109;BME280;54027;50.786;7.058;2022-09-09T01:54:18;100469.91;;;16.61;72.66
67109;BME280;54027;50.786;7.058;2022-09-09T02:04:24;100471.09;;;16.72;71.90
67109;BME280;54027;50.786;7.058;2022-09-09T02:06:53;100472.13;;;16.68;71.65
67109;BME280;54027;50.786;7.058;2022-09-09T02:09:21;100474.47;;;16.74;71.59
67109;BME280;54027;50.786;7.058;2022-09-09T02:11:47;100477.25;;;16.71;71.63
67109;BME280;54027;50.786;7.058;2022-09-09T02:14:24;100470.44;;;16.67;72.20
67109;BME280;54027;50.786;7.058;2022-09-09T02:16:53;100470.25;;;16.72;72.07
67109;BME280;54027;50.786;7.058;2022-09-09T02:19:25;100476.03;;;16.78;72.07
67109;BME280;54027;50.786;7.058;2022-09-09T02:21:53;100470.09;;;16.75;71.41
67109;BME280;54027;50.786;7.058;2022-09-09T02:24:20;100464.59;;;16.79;72.03
67109;BME280;54027;50.786;7.058;2022-09-09T02:26:46;100467.38;;;16.76;71.93
67109;BME280;54027;50.786;7.058;2022-09-09T02:29:14;100470.09;;;16.75;72.46
67109;BME280;54027;50.786;7.058;2022-09-09T02:31:41;100471.81;;;16.76;72.63
67109;BME280;54027;50.786;7.058;2022-09-09T02:34:09;100469.19;;;16.76;72.17
67109;BME280;54027;50.786;7.058;2022-09-09T02:36:36;100468.47;;;16.72;72.47
67109;BME280;54027;50.786;7.058;2022-09-09T02:39:02;100471.56;;;16.80;72.11
67109;BME280;54027;50.786;7.058;2022-09-09T02:41:32;100466.22;;;16.82;71.69
67109;BME280;54027;50.786;7.058;2022-09-09T02:43:57;100463.69;;;16.80;72.83
67109;BME280;54027;50.786;7.058;2022-09-09T02:49:12;100452.13;;;16.84;72.48
67109;BME280;54027;50.786;7.058;2022-09-09T02:56:47;100450.66;;;16.79;72.37
67109;BME280;54027;50.786;7.058;2022-09-09T02:59:15;100463.06;;;16.75;72.04
67109;BME280;54027;50.786;7.058;2022-09-09T03:01:41;100453.19;;;16.80;73.49
67109;BME280;54027;50.786;7.058;2022-09-09T03:04:06;100455.06;;;16.78;72.95
67109;BME280;54027;50.786;7.058;2022-09-09T03:06:31;100447.78;;;16.83;72.95
67109;BME280;54027;50.786;7.058;2022-09-09T03:08:57;100452.28;;;16.81;72.44
67109;BME280;54027;50.786;7.058;2022-09-09T03:11:26;100451.97;;;16.87;71.75
67109;BME280;54027;50.786;7.058;2022-09-09T03:13:52;100446.72;;;16.87;70.80
67109;BME280;54027;50.786;7.058;2022-09-09T03:16:17;100447.78;;;16.83;71.74
67109;BME280;54027;50.786;7.058;2022-09-09T03:18:42;100447.84;;;16.82;71.88
67109;BME280;54027;50.786;7.058;2022-09-09T03:21:10;100440.31;;;16.76;71.31
67109;BME280;54027;50.786;7.058;2022-09-09T03:23:36;100441.84;;;16.80;70.59
67109;BME280;54027;50.786;7.058;2022-09-09T03:26:01;100445.16;;;16.83;71.58
67109;BME280;54027;50.786;7.058;2022-09-09T03:28:27;100442.78;;;16.79;71.73
67109;BME280;54027;50.786;7.058;2022-09-09T03:31:02;100444.25;;;16.84;70.29
67109;BME280;54027;50.786;7.058;2022-09-09T03:33:28;100448.63;;;16.84;70.25
67109;BME280;54027;50.786;7.058;2022-09-09T03:35:54;100448.69;;;16.82;71.92
67109;BME280;54027;50.786;7.058;2022-09-09T03:38:21;100453.72;;;16.87;71.51
67109;BME280;54027;50.786;7.058;2022-09-09T03:40:53;100447.94;;;16.80;71.35
67109;BME280;54027;50.786;7.058;2022-09-09T03:43:26;100454.03;;;16.81;71.55
67109;BME280;54027;50.786;7.058;2022-09-09T03:45:51;100446.06;;;16.82;71.63
67109;BME280;54027;50.786;7.058;2022-09-09T03:48:18;100443.44;;;16.82;71.56
67109;BME280;54027;50.786;7.058;2022-09-09T03:50:46;100443.28;;;16.85;72.10
67109;BME280;54027;50.786;7.058;2022-09-09T03:53:12;100447.69;;;16.85;71.44
67109;BME280;54027;50.786;7.058;2022-09-09T03:55:38;100448.47;;;16.87;71.29
67109;BME280;54027;50.786;7.058;2022-09-09T03:58:03;100452.94;;;16.85;71.70
67109;BME280;54027;50.786;7.058;2022-09-09T04:00:29;100445.00;;;16.86;70.21
67109;BME280;54027;50.786;7.058;2022-09-09T04:02:55;100439.16;;;16.81;70.32
67109;BME280;54027;50.786;7.058;2022-09-09T04:05:21;100437.34;;;16.82;70.83
67109;BME280;54027;50.786;7.058;2022-09-09T04:07:47;100443.06;;;16.90;72.57
67109;BME280;54027;50.786;7.058;2022-09-09T04:10:12;100434.41;;;16.88;71.92
67109;BME280;54027;50.786;7.058;2022-09-09T04:12:38;100445.84;;;16.87;72.24
67109;BME280;54027;50.786;7.058;2022-09-09T04:15:03;100442.28;;;16.88;71.68
67109;BME280;54027;50.786;7.058;2022-09-09T04:17:29;100440.50;;;16.88;71.68
67109;BME280;54027;50.786;7.058;2022-09-09T04:19:54;100446.59;;;16.89;71.21
67109;BME280;54027;50.786;7.058;2022-09-09T04:22:19;100441.63;;;16.84;71.07
67109;BME280;54027;50.786;7.058;2022-09-09T04:24:44;100446.59;;;16.89;70.23
67109;BME280;54027;50.786;7.058;2022-09-09T04:27:10;100445.00;;;16.86;70.50
67109;BME280;54027;50.786;7.058;2022-09-09T04:29:35;100452.94;;;16.85;70.40
67109;BME280;54027;50.786;7.058;2022-09-09T04:32:00;100450.41;;;16.83;70.63
67109;BME280;54027;50.786;7.058;2022-09-09T04:34:26;100451.78;;;16.90;70.33
67109;BME280;54027;50.786;7.058;2022-09-09T04:36:51;100454.56;;;16.87;70.91
67109;BME280;54027;50.786;7.058;2022-09-09T04:39:17;100449.34;;;16.87;70.69
67109;BME280;54027;50.786;7.058;2022-09-09T04:41:42;100448.06;;;16.94;70.68
67109;BME280;54027;50.786;7.058;2022-09-09T04:44:07;100458.69;;;16.76;71.01
67109;BME280;54027;50.786;7.058;2022-09-09T04:46:32;100461.47;;;16.73;70.45
67109;BME280;54027;50.786;7.058;2022-09-09T04:48:59;100449.72;;;16.80;70.04
67109;BME280;54027;50.786;7.058;2022-09-09T04:51:24;100457.09;;;16.89;70.26
67109;BME280;54027;50.786;7.058;2022-09-09T04:53:50;100455.78;;;16.97;70.48
67109;BME280;54027;50.786;7.058;2022-09-09T04:56:16;100461.44;;;16.90;70.12
67109;BME280;54027;50.786;7.058;2022-09-09T04:58:41;100470.31;;;16.87;70.08
67109;BME280;54027;50.786;7.058;2022-09-09T05:01:09;100460.97;;;16.99;70.14
67109;BME280;54027;50.786;7.058;2022-09-09T05:03:35;100463.91;;;16.93;69.30
67109;BME280;54027;50.786;7.058;2022-09-09T05:06:06;100458.19;;;16.85;69.92
67109;BME280;54027;50.786;7.058;2022-09-09T05:08:33;100459.09;;;17.01;69.53
67109;BME280;54027;50.786;7.058;2022-09-09T05:10:59;100456.56;;;16.99;69.49
67109;BME280;54027;50.786;7.058;2022-09-09T05:13:25;100460.44;;;16.92;69.94
67109;BME280;54027;50.786;7.058;2022-09-09T05:15:53;100466.22;;;16.99;69.10
67109;BME280;54027;50.786;7.058;2022-09-09T05:18:19;100459.41;;;16.95;68.86
67109;BME280;54027;50.786;7.058;2022-09-09T05:20:44;100467.38;;;16.93;69.09
67109;BME280;54027;50.786;7.058;2022-09-09T05:23:09;100466.44;;;16.94;69.37
67109;BME280;54027;50.786;7.058;2022-09-09T05:25:38;100463.50;;;17.00;68.95
67109;BME280;54027;50.786;7.058;2022-09-09T05:28:03;100455.34;;;16.89;68.35
67109;BME280;54027;50.786;7.058;2022-09-09T05:30:29;100460.03;;;16.83;68.67
67109;BME280;54027;50.786;7.058;2022-09-09T05:32:57;100456.88;;;16.93;68.69
67109;BME280;54027;50.786;7.058;2022-09-09T05:35:22;100470.81;;;16.94;68.84
67109;BME280;54027;50.786;7.058;2022-09-09T05:37:48;100469.91;;;16.95;68.25
67109;BME280;54027;50.786;7.058;2022-09-09T05:40:13;100465.13;;;16.86;68.33
67109;BME280;54027;50.786;7.058;2022-09-09T05:42:38;100464.28;;;17.02;67.53
67109;BME280;54027;50.786;7.058;2022-09-09T05:45:04;100462.63;;;17.00;67.37
67109;BME280;54027;50.786;7.058;2022-09-09T05:47:30;100470.75;;;16.95;67.74
67109;BME280;54027;50.786;7.058;2022-09-09T05:49:55;100462.13;;;16.93;68.25
67109;BME280;54027;50.786;7.058;2022-09-09T05:52:20;100453.47;;;16.91;67.82
67109;BME280;54027;50.786;7.058;2022-09-09T05:54:46;100457.81;;;16.92;67.99
67109;BME280;54027;50.786;7.058;2022-09-09T05:57:11;100463.06;;;16.92;68.30
67109;BME280;54027;50.786;7.058;2022-09-09T05:59:36;100470.97;;;16.91;68.07
67109;BME280;54027;50.786;7.058;2022-09-09T06:02:02;100469.00;;;16.96;68.50
67109;BME280;54027;50.786;7.058;2022-09-09T06:04:27;100468.41;;;17.06;69.51
67109;BME280;54027;50.786;7.058;2022-09-09T06:06:52;100463.31;;;17.03;67.58
67109;BME280;54027;50.786;7.058;2022-09-09T06:09:18;100468.50;;;17.05;67.73
67109;BME280;54027;50.786;7.058;2022-09-09T06:11:43;100465.25;;;17.00;67.77
67109;BME280;54027;50.786;7.058;2022-09-09T06:14:09;100469.38;;;17.05;68.05
67109;BME280;54027;50.786;7.058;2022-09-09T06:16:34;100474.34;;;17.10;67.36
67109;BME280;54027;50.786;7.058;2022-09-09T06:19:00;100472.22;;;17.01;67.69
67109;BME280;54027;50.786;7.058;2022-09-09T06:21:33;100471.13;;;17.05;68.15
67109;BME280;54027;50.786;7.058;2022-09-09T06:23:59;100467.19;;;17.14;67.10
67109;BME280;54027;50.786;7.058;2022-09-09T06:26:25;100465.88;;;17.05;67.58
67109;BME280;54027;50.786;7.058;2022-09-09T06:28:51;100468.41;;;17.06;67.48
67109;BME280;54027;50.786;7.058;2022-09-09T06:31:18;100477.03;;;17.08;68.50
67109;BME280;54027;50.786;7.058;2022-09-09T06:33:48;100478.91;;;17.06;68.39
67109;BME280;54027;50.786;7.058;2022-09-09T06:36:21;100476.56;;;17.18;67.96
67109;BME280;54027;50.786;7.058;2022-09-09T06:38:46;100467.25;;;17.12;68.06
67109;BME280;54027;50.786;7.058;2022-09-09T06:41:13;100473.06;;;17.01;68.32
67109;BME280;54027;50.786;7.058;2022-09-09T06:43:39;100468.19;;;17.11;69.35
67109;BME280;54027;50.786;7.058;2022-09-09T06:46:11;100469.19;;;17.08;68.50
67109;BME280;54027;50.786;7.058;2022-09-09T06:48:38;100458.63;;;17.10;67.10
67109;BME280;54027;50.786;7.058;2022-09-09T06:53:31;100464.78;;;17.09;67.44
67109;BME280;54027;50.786;7.058;2022-09-09T06:55:59;100460.81;;;17.02;66.93
67109;BME280;54027;50.786;7.058;2022-09-09T06:58:25;100464.13;;;17.05;68.54
67109;BME280;54027;50.786;7.058;2022-09-09T07:00:50;100460.63;;;17.05;68.15
67109;BME280;54027;50.786;7.058;2022-09-09T07:03:15;100456.41;;;17.02;68.08
67109;BME280;54027;50.786;7.058;2022-09-09T07:05:40;100464.34;;;17.01;69.42
67109;BME280;54027;50.786;7.058;2022-09-09T07:08:06;100453.69;;;17.04;67.18
67109;BME280;54027;50.786;7.058;2022-09-09T07:10:31;100449.88;;;17.10;67.04
67109;BME280;54027;50.786;7.058;2022-09-09T07:12:56;100453.38;;;17.10;66.29
67109;BME280;54027;50.786;7.058;2022-09-09T07:15:22;100451.59;;;17.11;66.36
67109;BME280;54027;50.786;7.058;2022-09-09T07:17:48;100459.31;;;17.14;66.71
67109;BME280;54027;50.786;7.058;2022-09-09T07:20:13;100452.03;;;17.19;66.27
67109;BME280;54027;50.786;7.058;2022-09-09T07:22:39;100452.03;;;17.19;65.34
67109;BME280;54027;50.786;7.058;2022-09-09T07:25:05;100454.22;;;17.11;64.39
67109;BME280;54027;50.786;7.058;2022-09-09T07:27:30;100460.31;;;17.11;65.00
67109;BME280;54027;50.786;7.058;2022-09-09T07:29:55;100464.41;;;17.17;66.57
67109;BME280;54027;50.786;7.058;2022-09-09T07:32:22;100466.22;;;17.15;65.80
67109;BME280;54027;50.786;7.058;2022-09-09T07:34:47;100469.66;;;17.17;64.50
67109;BME280;54027;50.786;7.058;2022-09-09T07:37:15;100477.88;;;17.26;63.87
67109;BME280;54027;50.786;7.058;2022-09-09T07:39:40;100482.06;;;17.13;65.13
67109;BME280;54027;50.786;7.058;2022-09-09T07:42:06;100482.44;;;17.23;63.02
67109;BME280;54027;50.786;7.058;2022-09-09T07:44:31;100489.84;;;17.32;63.30
67109;BME280;54027;50.786;7.058;2022-09-09T07:47:00;100497.72;;;17.32;63.50
67109;BME280;54027;50.786;7.058;2022-09-09T07:49:25;100486.16;;;17.19;63.07
67109;BME280;54027;50.786;7.058;2022-09-09T07:51:50;100500.19;;;17.35;63.29
67109;BME280;54027;50.786;7.058;2022-09-09T07:54:16;100504.03;;;17.28;63.24
67109;BME280;54027;50.786;7.058;2022-09-09T07:56:45;100500.50;;;17.29;63.36
67109;BME280;54027;50.786;7.058;2022-09-09T07:59:10;100503.72;;;17.34;63.18
67109;BME280;54027;50.786;7.058;2022-09-09T08:01:45;100508.72;;;17.38;64.56
67109;BME280;54027;50.786;7.058;2022-09-09T08:04:15;100500.66;;;17.41;64.68
67109;BME280;54027;50.786;7.058;2022-09-09T08:06:45;100500.50;;;17.44;62.82
67109;BME280;54027;50.786;7.058;2022-09-09T08:09:11;100494.56;;;17.25;62.59
67109;BME280;54027;50.786;7.058;2022-09-09T08:11:37;100507.56;;;17.44;65.03
67109;BME280;54027;50.786;7.058;2022-09-09T08:14:02;100509.00;;;17.49;64.97
67109;BME280;54027;50.786;7.058;2022-09-09T08:16:29;100501.53;;;17.42;61.84
67109;BME280;54027;50.786;7.058;2022-09-09T08:18:56;100501.63;;;17.40;62.13
67109;BME280;54027;50.786;7.058;2022-09-09T08:21:22;100505.44;;;17.35;62.52
67109;BME280;54027;50.786;7.058;2022-09-09T08:23:49;100506.78;;;17.42;62.19
67109;BME280;54027;50.786;7.058;2022-09-09T08:26:16;100500.19;;;17.35;61.97
67109;BME280;54027;50.786;7.058;2022-09-09T08:28:42;100497.66;;;17.49;61.93
67109;BME280;54027;50.786;7.058;2022-09-09T08:31:12;100499.03;;;17.56;61.75
67109;BME280;54027;50.786;7.058;2022-09-09T08:33:38;100501.81;;;17.53;61.65
67109;BME280;54027;50.786;7.058;2022-09-09T08:36:04;100491.91;;;17.58;60.00
67109;BME280;54027;50.786;7.058;2022-09-09T08:38:30;100497.22;;;17.56;62.12
67109;BME280;54027;50.786;7.058;2022-09-09T08:40:58;100506.53;;;17.64;61.67
67109;BME280;54027;50.786;7.058;2022-09-09T08:43:27;100491.97;;;17.56;61.04
67109;BME280;54027;50.786;7.058;2022-09-09T08:45:56;100485.50;;;17.64;60.70
67109;BME280;54027;50.786;7.058;2022-09-09T08:50:50;100485.00;;;17.73;61.91
67109;BME280;54027;50.786;7.058;2022-09-09T08:53:21;100494.75;;;17.71;61.71
67109;BME280;54027;50.786;7.058;2022-09-09T08:55:49;100495.09;;;17.65;60.10
67109;BME280;54027;50.786;7.058;2022-09-09T08:58:23;100493.28;;;17.65;60.03
67109;BME280;54027;50.786;7.058;2022-09-09T09:11:37;100502.03;;;17.81;59.97
67109;BME280;54027;50.786;7.058;2022-09-09T09:14:03;100503.47;;;17.87;60.81
67109;BME280;54027;50.786;7.058;2022-09-09T09:16:34;100505.94;;;17.90;60.15
67109;BME280;54027;50.786;7.058;2022-09-09T09:19:03;100506.84;;;17.89;60.22
67109;BME280;54027;50.786;7.058;2022-09-09T09:23:58;100515.59;;;17.89;60.75
67109;BME280;54027;50.786;7.058;2022-09-09T09:26:25;100516.19;;;17.79;59.25
67109;BME280;54027;50.786;7.058;2022-09-09T09:28:53;100515.00;;;17.84;59.17
67109;BME280;54027;50.786;7.058;2022-09-09T09:31:21;100522.47;;;17.92;61.70
67109;BME280;54027;50.786;7.058;2022-09-09T09:33:51;100518.75;;;17.96;58.21
67109;BME280;54027;50.786;7.058;2022-09-09T09:36:17;100510.00;;;17.95;57.89
67109;BME280;54027;50.786;7.058;2022-09-09T09:38:53;100509.41;;;17.90;57.44
67109;BME280;54027;50.786;7.058;2022-09-09T09:43:58;100508.22;;;17.96;58.67
67109;BME280;54027;50.786;7.058;2022-09-09T09:46:24;100511.78;;;17.95;57.33
67109;BME280;54027;50.786;7.058;2022-09-09T09:49:00;100504.06;;;17.92;56.64
67109;BME280;54027;50.786;7.058;2022-09-09T09:51:26;100510.84;;;17.96;57.13
67109;BME280;54027;50.786;7.058;2022-09-09T09:53:51;100512.72;;;17.94;59.40
67109;BME280;54027;50.786;7.058;2022-09-09T09:56:25;100508.22;;;17.96;57.23
67109;BME280;54027;50.786;7.058;2022-09-09T09:58:51;100505.75;;;17.93;56.62
67109;BME280;54027;50.786;7.058;2022-09-09T10:01:24;100510.94;;;17.94;57.13
67109;BME280;54027;50.786;7.058;2022-09-09T10:03:52;100507.13;;;17.84;56.55
67109;BME280;54027;50.786;7.058;2022-09-09T10:06:17;100513.47;;;17.96;57.96
67109;BME280;54027;50.786;7.058;2022-09-09T10:08:53;100509.16;;;17.95;58.63
67109;BME280;54027;50.786;7.058;2022-09-09T10:16:57;100507.66;;;18.06;57.23
67109;BME280;54027;50.786;7.058;2022-09-09T10:19:04;100511.25;;;18.04;57.60
67109;BME280;54027;50.786;7.058;2022-09-09T10:29:35;100511.78;;;18.10;56.91
67109;BME280;54027;50.786;7.058;2022-09-09T10:36:56;100502.19;;;18.09;59.90
67109;BME280;54027;50.786;7.058;2022-09-09T10:44:49;100494.91;;;18.14;58.60
67109;BME280;54027;50.786;7.058;2022-09-09T10:52:06;100489.19;;;18.22;57.31
67109;BME280;54027;50.786;7.058;2022-09-09T10:57:27;100486.06;;;18.31;56.82
67109;BME280;54027;50.786;7.058;2022-09-09T10:59:58;100491.41;;;18.30;56.24
67109;BME280;54027;50.786;7.058;2022-09-09T11:02:28;100488.44;;;18.36;60.79
67109;BME280;54027;50.786;7.058;2022-09-09T11:07:41;100494.28;;;18.25;56.10
67109;BME280;54027;50.786;7.058;2022-09-09T11:10:41;100482.50;;;18.32;55.76
67109;BME280;54027;50.786;7.058;2022-09-09T11:13:00;100481.38;;;18.36;56.16
67109;BME280;54027;50.786;7.058;2022-09-09T11:15:35;100479.69;;;18.35;55.35
67109;BME280;54027;50.786;7.058;2022-09-09T11:18:03;100474.94;;;18.42;56.39
67109;BME280;54027;50.786;7.058;2022-09-09T11:20:29;100481.88;;;18.43;57.44
67109;BME280;54027;50.786;7.058;2022-09-09T11:22:59;100487.13;;;18.43;60.38
67109;BME280;54027;50.786;7.058;2022-09-09T11:25:35;100475.09;;;18.39;58.95
67109;BME280;54027;50.786;7.058;2022-09-09T11:30:38;100471.34;;;18.43;55.95
67109;BME280;54027;50.786;7.058;2022-09-09T11:33:22;100470.59;;;18.41;55.94
67109;BME280;54027;50.786;7.058;2022-09-09T11:36:24;100464.41;;;18.42;55.43
67109;BME280;54027;50.786;7.058;2022-09-09T11:38:48;100473.91;;;18.44;55.95
67109;BME280;54027;50.786;7.058;2022-09-09T11:41:16;100468.81;;;18.41;55.85
67109;BME280;54027;50.786;7.058;2022-09-09T11:43:44;100465.22;;;18.42;54.58
67109;BME280;54027;50.786;7.058;2022-09-09T11:46:10;100465.09;;;18.45;55.80
67109;BME280;54027;50.786;7.058;2022-09-09T11:48:41;100462.59;;;18.42;54.80
67109;BME280;54027;50.786;7.058;2022-09-09T11:51:29;100465.88;;;18.47;54.64
67109;BME280;54027;50.786;7.058;2022-09-09T11:56:34;100456.03;;;18.51;53.13
67109;BME280;54027;50.786;7.058;2022-09-09T11:59:03;100465.22;;;18.58;58.59
67109;BME280;54027;50.786;7.058;2022-09-09T12:12:06;100462.38;;;18.47;54.33
67109;BME280;54027;50.786;7.058;2022-09-09T12:14:36;100457.69;;;18.52;53.73
67109;BME280;54027;50.786;7.058;2022-09-09T12:19:39;100458.00;;;18.61;54.36
67109;BME280;54027;50.786;7.058;2022-09-09T12:22:11;100462.34;;;18.62;56.99
67109;BME280;54027;50.786;7.058;2022-09-09T12:25:07;100459.88;;;18.59;53.89
67109;BME280;54027;50.786;7.058;2022-09-09T12:30:22;100453.03;;;18.57;54.12
67109;BME280;54027;50.786;7.058;2022-09-09T12:33:00;100454.69;;;18.58;53.84
67109;BME280;54027;50.786;7.058;2022-09-09T12:35:26;100457.44;;;18.56;54.33
67109;BME280;54027;50.786;7.058;2022-09-09T12:37:56;100457.44;;;18.56;54.69
67109;BME280;54027;50.786;7.058;2022-09-09T12:40:27;100455.72;;;18.55;53.39
67109;BME280;54027;50.786;7.058;2022-09-09T12:42:53;100454.69;;;18.58;54.88
67109;BME280;54027;50.786;7.058;2022-09-09T12:45:24;100459.03;;;18.59;56.29
67109;BME280;54027;50.786;7.058;2022-09-09T12:50:24;100445.69;;;18.62;54.67
67109;BME280;54027;50.786;7.058;2022-09-09T12:52:51;100445.13;;;18.57;53.73
67109;BME280;54027;50.786;7.058;2022-09-09T12:55:19;100443.31;;;18.57;53.05
67109;BME280;54027;50.786;7.058;2022-09-09T12:57:46;100443.44;;;18.56;53.99
67109;BME280;54027;50.786;7.058;2022-09-09T13:00:16;100443.44;;;18.56;56.10
67109;BME280;54027;50.786;7.058;2022-09-09T13:02:52;100446.25;;;18.53;56.10
67109;BME280;54027;50.786;7.058;2022-09-09T13:05:19;100443.88;;;18.48;54.75
67109;BME280;54027;50.786;7.058;2022-09-09T13:07:45;100443.25;;;18.43;54.95
67109;BME280;54027;50.786;7.058;2022-09-09T13:10:11;100449.72;;;18.38;54.33
67109;BME280;54027;50.786;7.058;2022-09-09T13:12:36;100442.69;;;18.38;55.02
67109;BME280;54027;50.786;7.058;2022-09-09T13:15:02;100445.03;;;18.43;54.90
67109;BME280;54027;50.786;7.058;2022-09-09T13:17:27;100446.94;;;18.41;54.73
67109;BME280;54027;50.786;7.058;2022-09-09T13:19:56;100454.38;;;18.48;55.04
67109;BME280;54027;50.786;7.058;2022-09-09T13:22:26;100440.97;;;18.53;53.80
67109;BME280;54027;50.786;7.058;2022-09-09T13:24:59;100440.69;;;18.57;54.53
67109;BME280;54027;50.786;7.058;2022-09-09T13:27:29;100444.00;;;18.61;54.30
67109;BME280;54027;50.786;7.058;2022-09-09T13:29:55;100445.59;;;18.63;55.28
67109;BME280;54027;50.786;7.058;2022-09-09T13:32:22;100433.84;;;18.69;54.45
67109;BME280;54027;50.786;7.058;2022-09-09T13:34:51;100430.78;;;18.62;55.15
67109;BME280;54027;50.786;7.058;2022-09-09T13:37:24;100431.03;;;18.72;54.47
67109;BME280;54027;50.786;7.058;2022-09-09T13:39:52;100429.75;;;18.79;54.63
67109;BME280;54027;50.786;7.058;2022-09-09T13:42:22;100430.31;;;18.84;54.74
67109;BME280;54027;50.786;7.058;2022-09-09T13:44:50;100430.50;;;18.81;55.32
67109;BME280;54027;50.786;7.058;2022-09-09T13:47:19;100426.19;;;18.80;56.03
67109;BME280;54027;50.786;7.058;2022-09-09T13:49:45;100438.13;;;18.86;55.00
67109;BME280;54027;50.786;7.058;2022-09-09T13:54:36;100446.09;;;18.84;56.20
67109;BME280;54027;50.786;7.058;2022-09-09T13:57:02;100441.19;;;18.78;57.36
67109;BME280;54027;50.786;7.058;2022-09-09T13:59:29;100435.31;;;18.75;56.49
67109;BME280;54027;50.786;7.058;2022-09-09T14:01:54;100434.88;;;18.66;58.04
67109;BME280;54027;50.786;7.058;2022-09-09T14:04:19;100425.97;;;18.69;57.15
67109;BME280;54027;50.786;7.058;2022-09-09T14:06:49;100424.09;;;18.71;57.49
67109;BME280;54027;50.786;7.058;2022-09-09T14:09:15;100430.84;;;18.75;57.50
67109;BME280;54027;50.786;7.058;2022-09-09T14:11:41;100424.19;;;18.69;57.40
67109;BME280;54027;50.786;7.058;2022-09-09T14:14:07;100426.25;;;18.64;56.81
67109;BME280;54027;50.786;7.058;2022-09-09T14:16:33;100427.47;;;18.73;57.02
67109;BME280;54027;50.786;7.058;2022-09-09T14:18:58;100434.44;;;18.74;57.32
67109;BME280;54027;50.786;7.058;2022-09-09T14:21:27;100425.53;;;18.77;57.03
67109;BME280;54027;50.786;7.058;2022-09-09T14:23:52;100430.78;;;18.77;58.23
67109;BME280;54027;50.786;7.058;2022-09-09T14:26:18;100428.16;;;18.77;57.67
67109;BME280;54027;50.786;7.058;2022-09-09T14:28:43;100428.91;;;18.79;58.17
67109;BME280;54027;50.786;7.058;2022-09-09T14:31:10;100427.84;;;18.81;57.45
67109;BME280;54027;50.786;7.058;2022-09-09T14:33:35;100421.00;;;18.79;58.55
67109;BME280;54027;50.786;7.058;2022-09-09T14:36:02;100422.03;;;18.76;58.51
67109;BME280;54027;50.786;7.058;2022-09-09T14:38:34;100418.47;;;18.77;58.19
67109;BME280;54027;50.786;7.058;2022-09-09T14:41:03;100425.34;;;18.80;58.34
67109;BME280;54027;50.786;7.058;2022-09-09T14:43:29;100429.66;;;18.81;58.29
67109;BME280;54027;50.786;7.058;2022-09-09T14:45:57;100421.47;;;18.85;56.12
67109;BME280;54027;50.786;7.058;2022-09-09T14:48:22;100425.72;;;18.88;57.26
67109;BME280;54027;50.786;7.058;2022-09-09T14:50:48;100419.59;;;18.87;57.69
67109;BME280;54027;50.786;7.058;2022-09-09T14:53:14;100412.91;;;18.82;57.83
67109;BME280;54027;50.786;7.058;2022-09-09T14:55:41;100406.44;;;18.73;57.64